sensor_id;sensor_type;location;lat;lon;timestamp;temperature;humidity
3896;DHT22;1963;48.804;8.358;2022-12-10T00:01:09;2.80;99.90
3896;DHT22;1963;48.804;8.358;2022-12-10T00:03:37;2.80;99.90
3896;DHT22;1963;48.804;8.358;2022-12-10T00:06:10;2.80;99.90
3896;DHT22;1963;48.804;8.358;2022-12-10T00:08:38;2.80;99.90
3896;DHT22;1963;48.804;8.358;2022-12-10T00:11:08;2.80;99.90
3896;DHT22;1963;48.804;8.358;2022-12-10T00:13:37;2.80;99.90
3896;DHT22;1963;48.804;8.358;2022-12-10T00:16:07;2.80;99.90
3896;DHT22;1963;48.804;8.358;2022-12-10T00:18:36;2.80;99.90
3896;DHT22;1963;48.804;8.358;2022-12-10T00:21:05;2.80;99.90
3896;DHT22;1963;48.804;8.358;2022-12-10T00:23:35;2.80;99.90
3896;DHT22;1963;48.804;8.358;2022-12-10T00:26:03;2.80;99.90
3896;DHT22;1963;48.804;8.358;2022-12-10T00:28:32;2.80;99.90
3896;DHT22;1963;48.804;8.358;2022-12-10T00:31:04;2.80;99.90
3896;DHT22;1963;48.804;8.358;2022-12-10T00:33:33;2.80;99.90
3896;DHT22;1963;48.804;8.358;2022-12-10T00:36:02;2.80;99.90
3896;DHT22;1963;48.804;8.358;2022-12-10T00:38:31;2.80;99.90
3896;DHT22;1963;48.804;8.358;2022-12-10T00:41:00;2.80;99.90
3896;DHT22;1963;48.804;8.358;2022-12-10T00:43:28;2.80;99.90
3896;DHT22;1963;48.804;8.358;2022-12-10T00:45:56;2.70;99.90
3896;DHT22;1963;48.804;8.358;2022-12-10T00:48:24;2.80;99.90
3896;DHT22;1963;48.804;8.358;2022-12-10T00:50:57;2.80;99.90
3896;DHT22;1963;48.804;8.358;2022-12-10T00:53:27;2.80;99.90
3896;DHT22;1963;48.804;8.358;2022-12-10T00:55:55;2.80;99.90
3896;DHT22;1963;48.804;8.358;2022-12-10T00:58:27;2.80;99.90
3896;DHT22;1963;48.804;8.358;2022-12-10T01:01:06;2.80;99.90
3896;DHT22;1963;48.804;8.358;2022-12-10T01:03:35;2.80;99.90
3896;DHT22;1963;48.804;8.358;2022-12-10T01:06:11;2.80;99.90
3896;DHT22;1963;48.804;8.358;2022-12-10T01:08:39;2.90;99.90
3896;DHT22;1963;48.804;8.358;2022-12-10T01:11:08;2.90;99.90
3896;DHT22;1963;48.804;8.358;2022-12-10T01:13:38;2.80;99.90
3896;DHT22;1963;48.804;8.358;2022-12-10T01:16:08;2.80;99.90
3896;DHT22;1963;48.804;8.358;2022-12-10T01:18:37;2.80;99.90
3896;DHT22;1963;48.804;8.358;2022-12-10T01:21:07;2.80;99.90
3896;DHT22;1963;48.804;8.358;2022-12-10T01:23:37;2.80;99.90
3896;DHT22;1963;48.804;8.358;2022-12-10T01:26:07;2.80;99.90
3896;DHT22;1963;48.804;8.358;2022-12-10T01:28:38;2.90;99.90
3896;DHT22;1963;48.804;8.358;2022-12-10T01:31:09;2.90;99.90
3896;DHT22;1963;48.804;8.358;2022-12-10T01:33:38;2.90;99.90
3896;DHT22;1963;48.804;8.358;2022-12-10T01:36:08;2.90;99.90
3896;DHT22;1963;48.804;8.358;2022-12-10T01:38:36;2.90;99.90
3896;DHT22;1963;48.804;8.358;2022-12-10T01:41:05;2.90;99.90
3896;DHT22;1963;48.804;8.358;2022-12-10T01:43:51;2.90;99.90
3896;DHT22;1963;48.804;8.358;2022-12-10T01:46:20;2.90;99.90
3896;DHT22;1963;48.804;8.358;2022-12-10T01:48:49;2.90;99.90
3896;DHT22;1963;48.804;8.358;2022-12-10T01:51:17;2.80;99.90
3896;DHT22;1963;48.804;8.358;2022-12-10T01:53:46;2.80;99.90
3896;DHT22;1963;48.804;8.358;2022-12-10T01:56:17;2.80;99.90
3896;DHT22;1963;48.804;8.358;2022-12-10T01:58:45;2.80;99.90
3896;DHT22;1963;48.804;8.358;2022-12-10T02:01:22;2.70;99.90
3896;DHT22;1963;48.804;8.358;2022-12-10T02:03:58;2.70;99.90
3896;DHT22;1963;48.804;8.358;2022-12-10T02:06:37;2.70;99.90
3896;DHT22;1963;48.804;8.358;2022-12-10T02:09:11;2.70;99.90
3896;DHT22;1963;48.804;8.358;2022-12-10T02:11:44;2.70;99.90
3896;DHT22;1963;48.804;8.358;2022-12-10T02:14:17;2.70;99.90
3896;DHT22;1963;48.804;8.358;2022-12-10T02:16:53;2.70;99.90
3896;DHT22;1963;48.804;8.358;2022-12-10T02:19:27;2.70;99.90
3896;DHT22;1963;48.804;8.358;2022-12-10T02:21:58;2.70;99.90
3896;DHT22;1963;48.804;8.358;2022-12-10T02:24:30;2.60;99.90
3896;DHT22;1963;48.804;8.358;2022-12-10T02:27:03;2.60;99.90
3896;DHT22;1963;48.804;8.358;2022-12-10T02:29:34;2.60;99.90
3896;DHT22;1963;48.804;8.358;2022-12-10T02:32:05;2.60;99.90
3896;DHT22;1963;48.804;8.358;2022-12-10T02:34:37;2.60;99.90
3896;DHT22;1963;48.804;8.358;2022-12-10T02:37:08;2.50;99.90
3896;DHT22;1963;48.804;8.358;2022-12-10T02:39:41;2.50;99.90
3896;DHT22;1963;48.804;8.358;2022-12-10T02:42:11;2.40;99.90
3896;DHT22;1963;48.804;8.358;2022-12-10T02:44:42;2.40;99.90
3896;DHT22;1963;48.804;8.358;2022-12-10T02:47:12;2.40;99.90
3896;DHT22;1963;48.804;8.358;2022-12-10T02:49:41;2.30;99.90
3896;DHT22;1963;48.804;8.358;2022-12-10T02:52:11;2.30;99.90
3896;DHT22;1963;48.804;8.358;2022-12-10T02:54:41;2.20;99.90
3896;DHT22;1963;48.804;8.358;2022-12-10T02:57:31;2.20;99.90
3896;DHT22;1963;48.804;8.358;2022-12-10T03:00:12;2.20;99.90
3896;DHT22;1963;48.804;8.358;2022-12-10T03:03:04;2.20;99.90
3896;DHT22;1963;48.804;8.358;2022-12-10T03:05:38;2.20;99.90
3896;DHT22;1963;48.804;8.358;2022-12-10T03:08:12;2.30;99.90
3896;DHT22;1963;48.804;8.358;2022-12-10T03:10:45;2.20;99.90
3896;DHT22;1963;48.804;8.358;2022-12-10T03:13:18;2.20;99.90
3896;DHT22;1963;48.804;8.358;2022-12-10T03:15:50;2.30;99.90
3896;DHT22;1963;48.804;8.358;2022-12-10T03:18:21;2.30;99.90
3896;DHT22;1963;48.804;8.358;2022-12-10T03:20:51;2.30;99.90
3896;DHT22;1963;48.804;8.358;2022-12-10T03:23:20;2.40;99.90
3896;DHT22;1963;48.804;8.358;2022-12-10T03:25:50;2.40;99.90
3896;DHT22;1963;48.804;8.358;2022-12-10T03:28:20;2.40;99.90
3896;DHT22;1963;48.804;8.358;2022-12-10T03:30:50;2.40;99.90
3896;DHT22;1963;48.804;8.358;2022-12-10T03:40:24;2.40;99.90
3896;DHT22;1963;48.804;8.358;2022-12-10T03:42:52;2.40;99.90
3896;DHT22;1963;48.804;8.358;2022-12-10T03:45:20;2.40;99.90
3896;DHT22;1963;48.804;8.358;2022-12-10T03:47:48;2.40;99.90
3896;DHT22;1963;48.804;8.358;2022-12-10T03:50:16;2.40;99.90
3896;DHT22;1963;48.804;8.358;2022-12-10T03:52:44;2.50;99.90
3896;DHT22;1963;48.804;8.358;2022-12-10T03:55:12;2.50;99.90
3896;DHT22;1963;48.804;8.358;2022-12-10T03:57:43;2.50;99.90
3896;DHT22;1963;48.804;8.358;2022-12-10T04:00:12;2.50;99.90
3896;DHT22;1963;48.804;8.358;2022-12-10T04:02:40;2.60;99.90
3896;DHT22;1963;48.804;8.358;2022-12-10T04:05:08;2.60;99.90
3896;DHT22;1963;48.804;8.358;2022-12-10T04:07:36;2.60;99.90
3896;DHT22;1963;48.804;8.358;2022-12-10T04:10:04;2.60;99.90
3896;DHT22;1963;48.804;8.358;2022-12-10T04:12:34;2.60;99.90
3896;DHT22;1963;48.804;8.358;2022-12-10T04:15:05;2.60;99.90
3896;DHT22;1963;48.804;8.358;2022-12-10T04:17:50;2.60;99.90
3896;DHT22;1963;48.804;8.358;2022-12-10T04:20:19;2.60;99.90
3896;DHT22;1963;48.804;8.358;2022-12-10T04:23:04;2.70;99.90
3896;DHT22;1963;48.804;8.358;2022-12-10T04:25:50;2.70;99.90
3896;DHT22;1963;48.804;8.358;2022-12-10T04:28:35;2.70;99.90
3896;DHT22;1963;48.804;8.358;2022-12-10T04:31:05;2.70;99.90
3896;DHT22;1963;48.804;8.358;2022-12-10T04:33:33;2.70;99.90
3896;DHT22;1963;48.804;8.358;2022-12-10T04:36:00;2.70;99.90
3896;DHT22;1963;48.804;8.358;2022-12-10T04:38:28;2.70;99.90
3896;DHT22;1963;48.804;8.358;2022-12-10T04:40:56;2.70;99.90
3896;DHT22;1963;48.804;8.358;2022-12-10T04:43:24;2.80;99.90
3896;DHT22;1963;48.804;8.358;2022-12-10T04:45:55;2.80;99.90
3896;DHT22;1963;48.804;8.358;2022-12-10T04:48:25;2.80;99.90
3896;DHT22;1963;48.804;8.358;2022-12-10T04:50:53;2.80;99.90
3896;DHT22;1963;48.804;8.358;2022-12-10T04:53:21;2.80;99.90
3896;DHT22;1963;48.804;8.358;2022-12-10T04:55:49;2.80;99.90
3896;DHT22;1963;48.804;8.358;2022-12-10T04:58:17;2.80;99.90
3896;DHT22;1963;48.804;8.358;2022-12-10T05:00:45;2.80;99.90
3896;DHT22;1963;48.804;8.358;2022-12-10T05:03:12;2.80;99.90
3896;DHT22;1963;48.804;8.358;2022-12-10T05:05:42;2.80;99.90
3896;DHT22;1963;48.804;8.358;2022-12-10T05:08:10;2.80;99.90
3896;DHT22;1963;48.804;8.358;2022-12-10T05:10:38;2.80;99.90
3896;DHT22;1963;48.804;8.358;2022-12-10T05:13:05;2.80;99.90
3896;DHT22;1963;48.804;8.358;2022-12-10T05:15:37;2.80;99.90
3896;DHT22;1963;48.804;8.358;2022-12-10T05:18:05;2.80;99.90
3896;DHT22;1963;48.804;8.358;2022-12-10T05:20:33;2.80;99.90
3896;DHT22;1963;48.804;8.358;2022-12-10T05:23:02;2.80;99.90
3896;DHT22;1963;48.804;8.358;2022-12-10T05:25:48;2.70;99.90
3896;DHT22;1963;48.804;8.358;2022-12-10T05:28:20;2.70;99.90
3896;DHT22;1963;48.804;8.358;2022-12-10T05:30:48;2.80;99.90
3896;DHT22;1963;48.804;8.358;2022-12-10T05:33:16;2.80;99.90
3896;DHT22;1963;48.804;8.358;2022-12-10T05:35:51;2.80;99.90
3896;DHT22;1963;48.804;8.358;2022-12-10T05:38:25;2.70;99.90
3896;DHT22;1963;48.804;8.358;2022-12-10T05:40:54;2.70;99.90
3896;DHT22;1963;48.804;8.358;2022-12-10T05:43:23;2.70;99.90
3896;DHT22;1963;48.804;8.358;2022-12-10T05:45:51;2.70;99.90
3896;DHT22;1963;48.804;8.358;2022-12-10T05:48:19;2.60;99.90
3896;DHT22;1963;48.804;8.358;2022-12-10T05:50:47;2.60;99.90
3896;DHT22;1963;48.804;8.358;2022-12-10T05:53:15;2.60;99.90
3896;DHT22;1963;48.804;8.358;2022-12-10T05:55:46;2.60;99.90
3896;DHT22;1963;48.804;8.358;2022-12-10T05:58:14;2.60;99.90
3896;DHT22;1963;48.804;8.358;2022-12-10T06:00:42;2.50;99.90
3896;DHT22;1963;48.804;8.358;2022-12-10T06:03:10;2.50;99.90
3896;DHT22;1963;48.804;8.358;2022-12-10T06:05:38;2.50;99.90
3896;DHT22;1963;48.804;8.358;2022-12-10T06:08:07;2.50;99.90
3896;DHT22;1963;48.804;8.358;2022-12-10T06:10:35;2.50;99.90
3896;DHT22;1963;48.804;8.358;2022-12-10T06:13:07;2.50;99.90
3896;DHT22;1963;48.804;8.358;2022-12-10T06:15:39;2.50;99.90
3896;DHT22;1963;48.804;8.358;2022-12-10T06:18:08;2.50;99.90
3896;DHT22;1963;48.804;8.358;2022-12-10T06:20:38;2.60;99.90
3896;DHT22;1963;48.804;8.358;2022-12-10T06:23:12;2.60;99.90
3896;DHT22;1963;48.804;8.358;2022-12-10T06:25:41;2.60;99.90
3896;DHT22;1963;48.804;8.358;2022-12-10T06:28:10;2.60;99.90
3896;DHT22;1963;48.804;8.358;2022-12-10T06:30:38;2.60;99.90
3896;DHT22;1963;48.804;8.358;2022-12-10T06:33:06;2.60;99.90
3896;DHT22;1963;48.804;8.358;2022-12-10T06:35:34;2.60;99.90
3896;DHT22;1963;48.804;8.358;2022-12-10T06:38:04;2.60;99.90
3896;DHT22;1963;48.804;8.358;2022-12-10T06:40:32;2.60;99.90
3896;DHT22;1963;48.804;8.358;2022-12-10T06:43:00;2.70;99.90
3896;DHT22;1963;48.804;8.358;2022-12-10T06:45:29;2.70;99.90
3896;DHT22;1963;48.804;8.358;2022-12-10T06:47:58;2.70;99.90
3896;DHT22;1963;48.804;8.358;2022-12-10T06:50:27;2.70;99.90
3896;DHT22;1963;48.804;8.358;2022-12-10T06:53:04;2.70;99.90
3896;DHT22;1963;48.804;8.358;2022-12-10T06:55:37;2.70;99.90
3896;DHT22;1963;48.804;8.358;2022-12-10T06:58:05;2.70;99.90
3896;DHT22;1963;48.804;8.358;2022-12-10T07:49:25;2.60;99.90
3896;DHT22;1963;48.804;8.358;2022-12-10T07:51:56;2.60;99.90
3896;DHT22;1963;48.804;8.358;2022-12-10T08:21:06;2.60;99.90
3896;DHT22;1963;48.804;8.358;2022-12-10T08:23:35;2.60;99.90
3896;DHT22;1963;48.804;8.358;2022-12-10T08:26:04;2.60;99.90
3896;DHT22;1963;48.804;8.358;2022-12-10T08:28:32;2.50;99.90
3896;DHT22;1963;48.804;8.358;2022-12-10T08:31:00;2.60;99.90
3896;DHT22;1963;48.804;8.358;2022-12-10T08:33:28;2.60;99.90
3896;DHT22;1963;48.804;8.358;2022-12-10T08:35:57;2.60;99.90
3896;DHT22;1963;48.804;8.358;2022-12-10T08:38:27;2.60;99.90
3896;DHT22;1963;48.804;8.358;2022-12-10T08:40:55;2.70;99.90
3896;DHT22;1963;48.804;8.358;2022-12-10T08:43:23;2.60;99.90
3896;DHT22;1963;48.804;8.358;2022-12-10T08:45:51;2.70;99.90
3896;DHT22;1963;48.804;8.358;2022-12-10T08:48:20;2.60;99.90
3896;DHT22;1963;48.804;8.358;2022-12-10T08:50:50;2.60;99.90
3896;DHT22;1963;48.804;8.358;2022-12-10T08:53:18;2.70;99.90
3896;DHT22;1963;48.804;8.358;2022-12-10T08:55:49;2.80;99.90
3896;DHT22;1963;48.804;8.358;2022-12-10T08:58:17;2.60;99.90
3896;DHT22;1963;48.804;8.358;2022-12-10T09:00:45;2.60;99.90
3896;DHT22;1963;48.804;8.358;2022-12-10T09:03:13;2.60;99.90
3896;DHT22;1963;48.804;8.358;2022-12-10T09:05:42;2.60;99.90
3896;DHT22;1963;48.804;8.358;2022-12-10T09:08:10;2.60;99.90
3896;DHT22;1963;48.804;8.358;2022-12-10T09:10:39;2.60;99.90
3896;DHT22;1963;48.804;8.358;2022-12-10T09:13:08;2.70;99.90
3896;DHT22;1963;48.804;8.358;2022-12-10T09:15:37;2.70;99.90
3896;DHT22;1963;48.804;8.358;2022-12-10T09:18:05;2.80;99.90
3896;DHT22;1963;48.804;8.358;2022-12-10T09:20:33;2.70;99.90
3896;DHT22;1963;48.804;8.358;2022-12-10T09:23:00;2.80;99.90
3896;DHT22;1963;48.804;8.358;2022-12-10T09:25:28;2.80;99.90
3896;DHT22;1963;48.804;8.358;2022-12-10T09:27:56;2.80;99.90
3896;DHT22;1963;48.804;8.358;2022-12-10T09:30:25;2.70;99.90
3896;DHT22;1963;48.804;8.358;2022-12-10T09:32:53;2.70;99.90
3896;DHT22;1963;48.804;8.358;2022-12-10T09:35:38;2.70;99.90
3896;DHT22;1963;48.804;8.358;2022-12-10T09:38:06;2.80;99.90
3896;DHT22;1963;48.804;8.358;2022-12-10T09:40:40;2.80;99.90
3896;DHT22;1963;48.804;8.358;2022-12-10T09:43:16;2.90;99.90
3896;DHT22;1963;48.804;8.358;2022-12-10T09:45:59;2.90;99.90
3896;DHT22;1963;48.804;8.358;2022-12-10T09:48:36;2.90;99.90
3896;DHT22;1963;48.804;8.358;2022-12-10T09:51:12;2.90;99.90
3896;DHT22;1963;48.804;8.358;2022-12-10T09:53:42;2.90;99.90
3896;DHT22;1963;48.804;8.358;2022-12-10T09:56:17;2.80;99.90
3896;DHT22;1963;48.804;8.358;2022-12-10T09:58:47;2.80;99.90
3896;DHT22;1963;48.804;8.358;2022-12-10T10:01:19;2.90;99.90
3896;DHT22;1963;48.804;8.358;2022-12-10T10:03:47;2.90;99.90
3896;DHT22;1963;48.804;8.358;2022-12-10T10:06:16;2.90;99.90
3896;DHT22;1963;48.804;8.358;2022-12-10T10:08:46;2.90;99.90
3896;DHT22;1963;48.804;8.358;2022-12-10T10:11:17;2.80;99.90
3896;DHT22;1963;48.804;8.358;2022-12-10T10:13:50;2.90;99.90
3896;DHT22;1963;48.804;8.358;2022-12-10T10:16:23;2.80;99.90
3896;DHT22;1963;48.804;8.358;2022-12-10T10:18:56;2.80;99.90
3896;DHT22;1963;48.804;8.358;2022-12-10T10:21:32;2.90;99.90
3896;DHT22;1963;48.804;8.358;2022-12-10T10:24:01;2.90;99.90
3896;DHT22;1963;48.804;8.358;2022-12-10T10:26:37;3.00;99.90
3896;DHT22;1963;48.804;8.358;2022-12-10T10:29:08;3.10;99.90
3896;DHT22;1963;48.804;8.358;2022-12-10T10:31:39;3.10;99.90
3896;DHT22;1963;48.804;8.358;2022-12-10T10:34:14;3.10;99.90
3896;DHT22;1963;48.804;8.358;2022-12-10T10:36:43;3.10;99.90
3896;DHT22;1963;48.804;8.358;2022-12-10T10:39:24;3.20;99.90
3896;DHT22;1963;48.804;8.358;2022-12-10T10:41:56;3.20;99.90
3896;DHT22;1963;48.804;8.358;2022-12-10T10:44:26;3.30;99.90
3896;DHT22;1963;48.804;8.358;2022-12-10T10:46:56;3.30;99.90
3896;DHT22;1963;48.804;8.358;2022-12-10T10:49:25;3.30;99.90
3896;DHT22;1963;48.804;8.358;2022-12-10T10:51:58;3.40;99.90
3896;DHT22;1963;48.804;8.358;2022-12-10T10:54:35;3.50;99.90
3896;DHT22;1963;48.804;8.358;2022-12-10T10:57:12;3.60;99.90
3896;DHT22;1963;48.804;8.358;2022-12-10T10:59:42;3.60;99.90
3896;DHT22;1963;48.804;8.358;2022-12-10T11:02:20;3.70;99.90
3896;DHT22;1963;48.804;8.358;2022-12-10T11:04:52;3.70;99.90
3896;DHT22;1963;48.804;8.358;2022-12-10T11:07:24;3.70;99.90
3896;DHT22;1963;48.804;8.358;2022-12-10T11:09:54;3.70;99.90
3896;DHT22;1963;48.804;8.358;2022-12-10T11:12:29;3.80;99.90
3896;DHT22;1963;48.804;8.358;2022-12-10T11:14:58;3.80;99.90
3896;DHT22;1963;48.804;8.358;2022-12-10T11:17:27;3.90;99.90
3896;DHT22;1963;48.804;8.358;2022-12-10T11:19:58;3.90;99.90
3896;DHT22;1963;48.804;8.358;2022-12-10T11:22:29;4.00;99.90
3896;DHT22;1963;48.804;8.358;2022-12-10T11:24:57;4.00;99.90
3896;DHT22;1963;48.804;8.358;2022-12-10T11:27:36;4.10;99.90
3896;DHT22;1963;48.804;8.358;2022-12-10T11:30:12;4.10;99.90
3896;DHT22;1963;48.804;8.358;2022-12-10T11:33:00;4.20;99.90
3896;DHT22;1963;48.804;8.358;2022-12-10T11:35:43;4.10;99.90
3896;DHT22;1963;48.804;8.358;2022-12-10T11:38:22;4.20;99.90
3896;DHT22;1963;48.804;8.358;2022-12-10T11:40:54;4.20;99.90
3896;DHT22;1963;48.804;8.358;2022-12-10T11:43:39;4.10;99.90
3896;DHT22;1963;48.804;8.358;2022-12-10T11:46:31;4.20;99.90
3896;DHT22;1963;48.804;8.358;2022-12-10T11:49:21;4.20;99.90
3896;DHT22;1963;48.804;8.358;2022-12-10T11:52:00;4.20;99.90
3896;DHT22;1963;48.804;8.358;2022-12-10T12:00:13;4.40;99.90
3896;DHT22;1963;48.804;8.358;2022-12-10T12:03:10;4.40;99.90
3896;DHT22;1963;48.804;8.358;2022-12-10T12:06:00;4.50;99.90
3896;DHT22;1963;48.804;8.358;2022-12-10T12:08:41;4.50;99.90
3896;DHT22;1963;48.804;8.358;2022-12-10T12:11:30;4.50;99.90
3896;DHT22;1963;48.804;8.358;2022-12-10T12:14:04;4.50;99.90
3896;DHT22;1963;48.804;8.358;2022-12-10T12:16:39;4.50;99.90
3896;DHT22;1963;48.804;8.358;2022-12-10T12:19:13;4.50;99.90
3896;DHT22;1963;48.804;8.358;2022-12-10T12:21:44;4.50;99.90
3896;DHT22;1963;48.804;8.358;2022-12-10T12:24:18;4.60;99.90
3896;DHT22;1963;48.804;8.358;2022-12-10T12:26:51;4.60;99.90
3896;DHT22;1963;48.804;8.358;2022-12-10T12:29:25;4.60;99.90
3896;DHT22;1963;48.804;8.358;2022-12-10T12:32:01;4.60;99.90
3896;DHT22;1963;48.804;8.358;2022-12-10T12:34:37;4.70;99.90
3896;DHT22;1963;48.804;8.358;2022-12-10T12:37:13;4.70;99.90
3896;DHT22;1963;48.804;8.358;2022-12-10T12:39:48;4.70;99.90
3896;DHT22;1963;48.804;8.358;2022-12-10T12:42:24;4.70;99.90
3896;DHT22;1963;48.804;8.358;2022-12-10T12:44:59;4.80;99.90
3896;DHT22;1963;48.804;8.358;2022-12-10T12:47:36;4.80;99.90
3896;DHT22;1963;48.804;8.358;2022-12-10T12:50:24;4.80;99.90
3896;DHT22;1963;48.804;8.358;2022-12-10T12:52:57;4.80;99.90
3896;DHT22;1963;48.804;8.358;2022-12-10T12:55:32;4.80;99.90
3896;DHT22;1963;48.804;8.358;2022-12-10T12:58:14;4.80;99.90
3896;DHT22;1963;48.804;8.358;2022-12-10T13:00:46;4.80;99.90
3896;DHT22;1963;48.804;8.358;2022-12-10T13:03:31;4.80;99.90
3896;DHT22;1963;48.804;8.358;2022-12-10T13:06:13;4.90;99.90
3896;DHT22;1963;48.804;8.358;2022-12-10T13:08:48;4.80;99.90
3896;DHT22;1963;48.804;8.358;2022-12-10T13:11:19;4.80;99.90
3896;DHT22;1963;48.804;8.358;2022-12-10T13:14:14;4.80;99.90
3896;DHT22;1963;48.804;8.358;2022-12-10T13:16:59;4.80;99.90
3896;DHT22;1963;48.804;8.358;2022-12-10T13:19:30;4.70;99.90
3896;DHT22;1963;48.804;8.358;2022-12-10T13:22:07;4.60;99.90
3896;DHT22;1963;48.804;8.358;2022-12-10T13:25:14;4.60;99.90
3896;DHT22;1963;48.804;8.358;2022-12-10T13:27:54;4.70;99.90
3896;DHT22;1963;48.804;8.358;2022-12-10T13:30:31;4.70;99.90
3896;DHT22;1963;48.804;8.358;2022-12-10T13:33:13;4.70;99.90
3896;DHT22;1963;48.804;8.358;2022-12-10T13:35:55;4.70;99.90
3896;DHT22;1963;48.804;8.358;2022-12-10T13:38:40;4.60;99.90
3896;DHT22;1963;48.804;8.358;2022-12-10T13:41:10;4.60;99.90
3896;DHT22;1963;48.804;8.358;2022-12-10T13:43:59;4.50;99.90
3896;DHT22;1963;48.804;8.358;2022-12-10T13:46:57;4.60;99.90
3896;DHT22;1963;48.804;8.358;2022-12-10T13:49:27;4.50;99.90
3896;DHT22;1963;48.804;8.358;2022-12-10T13:51:59;4.50;99.90
3896;DHT22;1963;48.804;8.358;2022-12-10T13:57:41;4.50;99.90
3896;DHT22;1963;48.804;8.358;2022-12-10T14:00:15;4.40;99.90
3896;DHT22;1963;48.804;8.358;2022-12-10T14:02:55;4.50;99.90
3896;DHT22;1963;48.804;8.358;2022-12-10T14:05:42;4.40;99.90
3896;DHT22;1963;48.804;8.358;2022-12-10T14:08:17;4.40;99.90
3896;DHT22;1963;48.804;8.358;2022-12-10T14:10:47;4.40;99.90
3896;DHT22;1963;48.804;8.358;2022-12-10T14:13:19;4.30;99.90
3896;DHT22;1963;48.804;8.358;2022-12-10T14:16:03;4.40;99.90
3896;DHT22;1963;48.804;8.358;2022-12-10T14:18:33;4.30;99.90
3896;DHT22;1963;48.804;8.358;2022-12-10T14:21:05;4.40;99.90
3896;DHT22;1963;48.804;8.358;2022-12-10T14:23:35;4.30;99.90
3896;DHT22;1963;48.804;8.358;2022-12-10T14:26:17;4.20;99.90
3896;DHT22;1963;48.804;8.358;2022-12-10T14:28:49;4.30;99.90
3896;DHT22;1963;48.804;8.358;2022-12-10T14:31:20;4.30;99.90
3896;DHT22;1963;48.804;8.358;2022-12-10T14:33:51;4.20;99.90
3896;DHT22;1963;48.804;8.358;2022-12-10T14:36:26;4.30;99.90
3896;DHT22;1963;48.804;8.358;2022-12-10T14:38:57;4.30;99.90
3896;DHT22;1963;48.804;8.358;2022-12-10T14:41:28;4.30;99.90
3896;DHT22;1963;48.804;8.358;2022-12-10T14:44:12;4.20;99.90
3896;DHT22;1963;48.804;8.358;2022-12-10T14:47:03;4.20;99.90
3896;DHT22;1963;48.804;8.358;2022-12-10T14:49:32;4.20;99.90
3896;DHT22;1963;48.804;8.358;2022-12-10T14:52:12;4.10;99.90
3896;DHT22;1963;48.804;8.358;2022-12-10T14:54:43;4.10;99.90
3896;DHT22;1963;48.804;8.358;2022-12-10T14:57:18;4.00;99.90
3896;DHT22;1963;48.804;8.358;2022-12-10T14:59:54;4.10;99.90
3896;DHT22;1963;48.804;8.358;2022-12-10T15:02:28;4.00;99.90
3896;DHT22;1963;48.804;8.358;2022-12-10T15:04:58;4.00;99.90
3896;DHT22;1963;48.804;8.358;2022-12-10T15:07:32;4.00;99.90
3896;DHT22;1963;48.804;8.358;2022-12-10T15:10:07;4.00;99.90
3896;DHT22;1963;48.804;8.358;2022-12-10T15:12:45;4.00;99.90
3896;DHT22;1963;48.804;8.358;2022-12-10T15:15:22;3.90;99.90
3896;DHT22;1963;48.804;8.358;2022-12-10T15:17:57;3.90;99.90
3896;DHT22;1963;48.804;8.358;2022-12-10T15:20:28;3.90;99.90
3896;DHT22;1963;48.804;8.358;2022-12-10T15:23:08;3.90;99.90
3896;DHT22;1963;48.804;8.358;2022-12-10T15:25:44;3.80;99.90
3896;DHT22;1963;48.804;8.358;2022-12-10T15:28:24;3.80;99.90
3896;DHT22;1963;48.804;8.358;2022-12-10T15:30:56;3.70;99.90
3896;DHT22;1963;48.804;8.358;2022-12-10T15:33:31;3.60;99.90
3896;DHT22;1963;48.804;8.358;2022-12-10T15:36:00;3.60;99.90
3896;DHT22;1963;48.804;8.358;2022-12-10T15:38:28;3.60;99.90
3896;DHT22;1963;48.804;8.358;2022-12-10T15:40:58;3.50;99.90
3896;DHT22;1963;48.804;8.358;2022-12-10T15:43:28;3.50;99.90
3896;DHT22;1963;48.804;8.358;2022-12-10T15:45:58;3.40;99.90
3896;DHT22;1963;48.804;8.358;2022-12-10T15:48:29;3.40;99.90
3896;DHT22;1963;48.804;8.358;2022-12-10T15:50:57;3.40;99.90
3896;DHT22;1963;48.804;8.358;2022-12-10T15:53:28;3.30;99.90
3896;DHT22;1963;48.804;8.358;2022-12-10T15:56:01;3.20;99.90
3896;DHT22;1963;48.804;8.358;2022-12-10T15:58:29;3.20;99.90
3896;DHT22;1963;48.804;8.358;2022-12-10T16:00:59;3.20;99.90
3896;DHT22;1963;48.804;8.358;2022-12-10T16:03:28;3.10;99.90
3896;DHT22;1963;48.804;8.358;2022-12-10T16:05:56;3.10;99.90
3896;DHT22;1963;48.804;8.358;2022-12-10T16:08:29;3.10;99.90
3896;DHT22;1963;48.804;8.358;2022-12-10T16:11:03;3.00;99.90
3896;DHT22;1963;48.804;8.358;2022-12-10T16:13:36;3.10;99.90
3896;DHT22;1963;48.804;8.358;2022-12-10T16:16:11;3.00;99.90
3896;DHT22;1963;48.804;8.358;2022-12-10T16:18:40;3.00;99.90
3896;DHT22;1963;48.804;8.358;2022-12-10T16:21:08;2.90;99.90
3896;DHT22;1963;48.804;8.358;2022-12-10T16:23:36;2.80;99.90
3896;DHT22;1963;48.804;8.358;2022-12-10T16:26:12;2.80;99.90
3896;DHT22;1963;48.804;8.358;2022-12-10T16:28:41;2.60;99.90
3896;DHT22;1963;48.804;8.358;2022-12-10T16:31:13;2.40;99.90
3896;DHT22;1963;48.804;8.358;2022-12-10T16:33:42;2.30;99.90
3896;DHT22;1963;48.804;8.358;2022-12-10T16:36:10;2.30;99.90
3896;DHT22;1963;48.804;8.358;2022-12-10T16:38:39;2.30;99.90
3896;DHT22;1963;48.804;8.358;2022-12-10T16:41:17;2.30;99.90
3896;DHT22;1963;48.804;8.358;2022-12-10T16:43:45;2.30;99.90
3896;DHT22;1963;48.804;8.358;2022-12-10T16:46:15;2.30;99.90
3896;DHT22;1963;48.804;8.358;2022-12-10T16:48:43;2.20;99.90
3896;DHT22;1963;48.804;8.358;2022-12-10T16:51:15;2.20;99.90
3896;DHT22;1963;48.804;8.358;2022-12-10T16:53:43;2.20;99.90
3896;DHT22;1963;48.804;8.358;2022-12-10T16:56:13;2.20;99.90
3896;DHT22;1963;48.804;8.358;2022-12-10T16:58:42;2.10;99.90
3896;DHT22;1963;48.804;8.358;2022-12-10T17:01:17;2.00;99.90
3896;DHT22;1963;48.804;8.358;2022-12-10T17:03:47;2.10;99.90
3896;DHT22;1963;48.804;8.358;2022-12-10T17:06:15;2.00;99.90
3896;DHT22;1963;48.804;8.358;2022-12-10T17:08:43;2.00;99.90
3896;DHT22;1963;48.804;8.358;2022-12-10T17:11:17;2.10;99.90
3896;DHT22;1963;48.804;8.358;2022-12-10T17:14:04;2.10;99.90
3896;DHT22;1963;48.804;8.358;2022-12-10T18:35:31;2.20;99.90
3896;DHT22;1963;48.804;8.358;2022-12-10T18:37:59;2.20;99.90
3896;DHT22;1963;48.804;8.358;2022-12-10T18:40:27;2.20;99.90
3896;DHT22;1963;48.804;8.358;2022-12-10T18:42:55;2.20;99.90
3896;DHT22;1963;48.804;8.358;2022-12-10T18:45:23;2.20;99.90
3896;DHT22;1963;48.804;8.358;2022-12-10T18:47:51;2.30;99.90
3896;DHT22;1963;48.804;8.358;2022-12-10T18:50:26;2.30;99.90
3896;DHT22;1963;48.804;8.358;2022-12-10T18:52:56;2.30;99.90
3896;DHT22;1963;48.804;8.358;2022-12-10T18:55:24;2.30;99.90
3896;DHT22;1963;48.804;8.358;2022-12-10T18:57:52;2.30;99.90
3896;DHT22;1963;48.804;8.358;2022-12-10T19:00:32;2.30;99.90
3896;DHT22;1963;48.804;8.358;2022-12-10T19:03:01;2.30;99.90
3896;DHT22;1963;48.804;8.358;2022-12-10T19:05:29;2.30;99.90
3896;DHT22;1963;48.804;8.358;2022-12-10T19:07:59;2.30;99.90
3896;DHT22;1963;48.804;8.358;2022-12-10T19:10:31;2.30;99.90
3896;DHT22;1963;48.804;8.358;2022-12-10T19:12:59;2.30;99.90
3896;DHT22;1963;48.804;8.358;2022-12-10T19:15:27;2.30;99.90
3896;DHT22;1963;48.804;8.358;2022-12-10T19:17:55;2.30;99.90
3896;DHT22;1963;48.804;8.358;2022-12-10T19:20:28;2.30;99.90
3896;DHT22;1963;48.804;8.358;2022-12-10T19:22:56;2.20;99.90
3896;DHT22;1963;48.804;8.358;2022-12-10T19:25:25;2.10;99.90
3896;DHT22;1963;48.804;8.358;2022-12-10T19:27:53;2.10;99.90
3896;DHT22;1963;48.804;8.358;2022-12-10T19:30:23;2.10;99.90
3896;DHT22;1963;48.804;8.358;2022-12-10T19:32:51;2.00;99.90
3896;DHT22;1963;48.804;8.358;2022-12-10T19:35:21;1.90;99.90
3896;DHT22;1963;48.804;8.358;2022-12-10T19:37:49;1.80;99.90
3896;DHT22;1963;48.804;8.358;2022-12-10T19:40:26;1.80;99.90